Time;durP1;ratioP1;P1;durP2;ratioP2;P2;SDS_P1;SDS_P2;PMS_P1;PMS_P2;Temp;Humidity;BMP_temperature;BMP_pressure;BME280_temperature;BME280_humidity;BME280_pressure;Samples;Min_cycle;Max_cycle;Signal;HPM_P1;HPM_P2
2021/09/18 00:02:23;;;;;;;;;16.00;15.50;;;;;21.02;100.00;101178.41;4999894;28;45333;-67
2021/09/18 00:04:49;;;;;;;;;15.25;14.25;;;;;20.98;100.00;101173.31;5018341;28;45298;-67
2021/09/18 00:07:15;;;;;;;;;21.50;19.00;;;;;20.99;100.00;101181.22;5017754;28;45587;-67
2021/09/18 00:09:41;;;;;;;;;19.75;17.50;;;;;20.96;100.00;101181.38;5017677;28;45552;-67
2021/09/18 00:12:06;;;;;;;;;14.75;14.75;;;;;20.86;100.00;101168.66;5017556;28;45444;-67
2021/09/18 00:14:31;;;;;;;;;17.75;16.00;;;;;20.93;100.00;101178.88;5018153;28;45326;-67
2021/09/18 00:16:57;;;;;;;;;15.50;15.25;;;;;20.88;100.00;101172.94;5017497;28;46019;-66
2021/09/18 00:23:25;;;;;;;;;17.00;16.00;;;;;20.83;100.00;101166.16;5016660;28;46103;-66
2021/09/18 00:25:50;;;;;;;;;15.00;12.75;;;;;20.69;100.00;101157.06;5017997;28;45400;-66
2021/09/18 00:28:16;;;;;;;;;15.50;15.25;;;;;20.83;100.00;101174.97;5017306;28;46768;-66
2021/09/18 00:30:41;;;;;;;;;14.50;14.50;;;;;20.77;100.00;101164.66;5017544;28;45766;-66
2021/09/18 00:33:06;;;;;;;;;16.00;15.50;;;;;20.79;100.00;101168.09;5017564;28;45360;-66
2021/09/18 00:35:32;;;;;;;;;15.50;14.50;;;;;20.76;100.00;101163.78;5017504;28;45427;-66
2021/09/18 00:37:57;;;;;;;;;15.50;13.25;;;;;20.78;100.00;101166.38;5017392;28;45459;-67
2021/09/18 00:40:23;;;;;;;;;19.50;17.50;;;;;20.75;100.00;101169.16;5017159;28;45415;-66
2021/09/18 00:42:48;;;;;;;;;15.50;15.50;;;;;20.75;100.00;101163.88;5017239;28;45379;-66
2021/09/18 00:45:14;;;;;;;;;17.00;15.75;;;;;20.73;100.00;101173.69;5017400;28;45583;-66
2021/09/18 00:47:39;;;;;;;;;18.00;15.50;;;;;20.70;100.00;101166.75;5016916;28;46380;-66
2021/09/18 00:50:05;;;;;;;;;18.75;18.50;;;;;20.57;100.00;101148.84;5017261;28;45322;-66
2021/09/18 00:52:31;;;;;;;;;18.75;17.50;;;;;20.65;100.00;101166.13;5017536;28;45335;-66
2021/09/18 00:54:56;;;;;;;;;17.25;16.75;;;;;20.61;100.00;101161.06;5017229;28;45331;-66
2021/09/18 00:57:25;;;;;;;;;16.75;16.50;;;;;20.55;100.00;101148.94;5017211;28;46352;-66
2021/09/18 00:59:50;;;;;;;;;14.00;13.00;;;;;20.56;100.00;101161.25;5016872;28;45619;-66
2021/09/18 01:02:15;;;;;;;;;17.75;14.75;;;;;20.47;100.00;101144.00;5016228;28;45368;-66
2021/09/18 01:08:03;;;;;;;;;14.75;14.25;;;;;20.52;100.00;101149.09;5016745;28;45360;-66
2021/09/18 01:10:29;;;;;;;;;17.25;15.50;;;;;20.24;100.00;101117.72;5017099;28;45395;-67
2021/09/18 01:13:11;;;;;;;;;13.75;13.50;;;;;20.46;100.00;101160.84;5017240;28;45530;-67
2021/09/18 01:15:38;;;;;;;;;14.75;14.50;;;;;20.38;100.00;101148.88;5017355;28;45305;-66
2021/09/18 01:18:05;;;;;;;;;17.75;16.50;;;;;20.35;100.00;101149.88;5016558;28;45359;-67
2021/09/18 01:20:31;;;;;;;;;17.00;15.25;;;;;20.38;100.00;101151.53;5016958;28;45367;-66
2021/09/18 01:22:58;;;;;;;;;16.25;14.75;;;;;20.34;100.00;101149.94;5016519;28;45472;-67
2021/09/18 01:25:26;;;;;;;;;16.50;15.00;;;;;20.30;100.00;101143.06;5017245;28;45435;-67
2021/09/18 01:27:52;;;;;;;;;18.00;17.00;;;;;20.25;100.00;101135.34;5016714;28;46218;-66
2021/09/18 01:30:20;;;;;;;;;18.25;17.50;;;;;20.35;100.00;101152.50;5016766;28;45443;-67
2021/09/18 01:32:46;;;;;;;;;16.00;16.00;;;;;20.31;100.00;101145.66;5016706;28;45434;-67
2021/09/18 01:35:11;;;;;;;;;16.25;16.25;;;;;20.29;100.00;101146.66;5016774;28;45377;-67
2021/09/18 01:37:37;;;;;;;;;19.00;16.50;;;;;20.26;100.00;101145.00;5016485;28;45420;-66
2021/09/18 01:40:03;;;;;;;;;18.75;17.50;;;;;20.26;100.00;101145.00;5016411;28;45388;-66
2021/09/18 01:42:29;;;;;;;;;21.25;18.75;;;;;20.29;100.00;101144.00;5016493;28;45397;-66
2021/09/18 01:44:54;;;;;;;;;15.50;15.50;;;;;20.31;100.00;101145.66;5016657;28;45465;-66
2021/09/18 01:47:19;;;;;;;;;17.00;16.00;;;;;20.33;100.00;101150.88;5015881;28;47547;-66
2021/09/18 01:53:08;;;;;;;;;17.00;15.50;;;;;20.29;100.00;101131.59;5016323;28;45396;-66
2021/09/18 01:55:35;;;;;;;;;14.25;13.25;;;;;20.40;100.00;101153.22;5016596;28;45389;-66
2021/09/18 01:58:01;;;;;;;;;14.25;14.25;;;;;20.41;100.00;101146.97;5016589;28;46387;-66
2021/09/18 02:00:28;;;;;;;;;14.25;13.25;;;;;20.42;100.00;101156.66;5016605;28;45280;-67
2021/09/18 02:02:54;;;;;;;;;18.25;16.50;;;;;20.45;100.00;101158.28;5016612;28;45345;-66
2021/09/18 02:05:22;;;;;;;;;16.75;15.00;;;;;20.37;100.00;101140.06;5016919;28;45568;-66
2021/09/18 02:07:48;;;;;;;;;14.25;13.00;;;;;20.46;100.00;101152.03;5016280;28;46722;-66
2021/09/18 02:10:16;;;;;;;;;15.25;14.25;;;;;20.46;100.00;101152.91;5016480;28;45451;-66
2021/09/18 02:12:42;;;;;;;;;17.75;15.75;;;;;20.46;100.00;101152.91;5017765;28;45278;-66
2021/09/18 02:15:09;;;;;;;;;16.25;16.00;;;;;20.39;100.00;101143.50;5020606;28;45432;-66
2021/09/18 02:17:35;;;;;;;;;14.75;13.75;;;;;20.45;100.00;101151.19;5019739;28;45987;-66
2021/09/18 02:23:22;;;;;;;;;15.50;14.25;;;;;20.37;100.00;101145.38;5018804;28;45523;-66
2021/09/18 02:25:48;;;;;;;;;17.25;15.25;;;;;20.43;100.00;101149.53;5020089;28;45272;-66
2021/09/18 02:28:14;;;;;;;;;15.25;15.00;;;;;20.33;100.00;101137.59;5019620;28;46406;-66
2021/09/18 02:30:40;;;;;;;;;17.50;15.50;;;;;20.34;100.00;101126.94;5020013;28;45456;-67
2021/09/18 02:33:06;;;;;;;;;14.75;13.00;;;;;20.40;100.00;101144.34;5019820;28;45423;-66
2021/09/18 02:35:32;;;;;;;;;18.50;16.00;;;;;20.36;100.00;101135.66;5019998;28;45400;-66
2021/09/18 02:37:59;;;;;;;;;13.75;13.00;;;;;20.37;100.00;101131.25;5019460;28;45485;-66
2021/09/18 02:40:25;;;;;;;;;14.25;14.25;;;;;20.36;100.00;101135.66;5019491;28;45439;-66
2021/09/18 02:42:54;;;;;;;;;14.00;13.00;;;;;20.35;100.00;101135.75;5020063;28;45453;-67
2021/09/18 02:45:20;;;;;;;;;14.25;14.00;;;;;20.33;100.00;101140.25;5018380;28;45453;-66
2021/09/18 02:47:46;;;;;;;;;15.50;14.25;;;;;20.30;100.00;101129.81;5019788;28;46617;-66
2021/09/18 02:53:33;;;;;;;;;15.50;14.75;;;;;20.24;100.00;101124.81;5019479;28;45289;-66
2021/09/18 02:56:02;;;;;;;;;14.50;12.25;;;;;20.23;100.00;101129.25;5019985;28;45393;-66
2021/09/18 02:58:27;;;;;;;;;15.00;14.00;;;;;20.22;100.00;101132.84;5019168;28;46403;-66
2021/09/18 03:00:52;;;;;;;;;12.25;12.25;;;;;20.19;100.00;101123.25;5019474;28;45341;-66
2021/09/18 03:03:18;;;;;;;;;16.75;15.00;;;;;20.15;100.00;101121.69;5019242;28;45740;-66
2021/09/18 03:05:43;;;;;;;;;15.00;14.00;;;;;20.17;100.00;101124.25;5019379;28;45484;-66
2021/09/18 03:08:08;;;;;;;;;14.50;14.50;;;;;20.07;100.00;101115.00;5019255;28;45424;-68
2021/09/18 03:10:34;;;;;;;;;14.25;13.25;;;;;20.15;100.00;101139.38;5019351;28;45281;-66
2021/09/18 03:12:59;;;;;;;;;16.25;12.25;;;;;20.05;100.00;101125.69;5019578;28;45317;-66
2021/09/18 03:15:25;;;;;;;;;14.00;13.00;;;;;20.13;100.00;101143.88;5019291;28;45255;-66
2021/09/18 03:17:50;;;;;;;;;18.25;15.50;;;;;20.12;100.00;101139.50;5018636;28;46320;-66
2021/09/18 03:23:37;;;;;;;;;13.25;12.00;;;;;20.01;100.00;101120.59;5018003;28;45551;-66
2021/09/18 03:26:02;;;;;;;;;18.25;15.00;;;;;20.07;100.00;101137.06;5018993;28;45504;-66
2021/09/18 03:28:28;;;;;;;;;16.25;14.25;;;;;20.07;100.00;101133.56;5000967;28;46522;-66
2021/09/18 03:30:53;;;;;;;;;17.25;16.50;;;;;20.04;100.00;101131.91;5019073;28;45325;-66
2021/09/18 03:33:18;;;;;;;;;14.75;14.50;;;;;20.05;100.00;101133.63;5019064;28;45337;-67
2021/09/18 03:35:44;;;;;;;;;14.50;14.00;;;;;20.01;100.00;101120.59;5019022;28;45485;-66
2021/09/18 03:38:10;;;;;;;;;17.00;16.00;;;;;19.99;100.00;101118.03;5018949;28;45594;-67
2021/09/18 03:40:35;;;;;;;;;15.00;14.25;;;;;19.94;100.00;101104.16;5018586;28;45616;-66
2021/09/18 03:43:01;;;;;;;;;18.50;15.00;;;;;19.96;100.00;101109.38;5018625;28;45390;-66
2021/09/18 03:45:26;;;;;;;;;16.50;14.75;;;;;19.99;100.00;101125.97;5018849;28;45471;-66
2021/09/18 03:47:52;;;;;;;;;15.50;14.00;;;;;19.87;100.00;101111.50;5018265;28;47121;-66
2021/09/18 03:53:39;;;;;;;;;21.00;17.50;;;;;19.93;100.00;101128.94;5018564;28;45476;-65
2021/09/18 03:56:06;;;;;;;;;15.00;14.25;;;;;19.91;100.00;101125.47;5018676;28;45365;-65
2021/09/18 03:58:31;;;;;;;;;14.75;14.50;;;;;19.86;100.00;101120.38;5018091;28;45523;-65
2021/09/18 04:00:56;;;;;;;;;16.75;14.50;;;;;19.85;100.00;101123.09;5018267;28;45310;-65
2021/09/18 04:03:22;;;;;;;;;17.50;17.00;;;;;19.77;100.00;101112.00;5018233;28;45262;-66
2021/09/18 04:09:09;;;;;;;;;16.00;15.25;;;;;19.82;100.00;101128.56;5018193;28;45852;-67
2021/09/18 04:11:34;;;;;;;;;18.00;17.25;;;;;19.84;100.00;101134.63;5000429;28;45417;-66
2021/09/18 04:14:00;;;;;;;;;20.00;19.00;;;;;19.82;100.00;101136.50;5018091;28;45377;-65
2021/09/18 04:16:25;;;;;;;;;20.25;20.25;;;;;19.81;100.00;101129.50;5018483;28;45211;-66
2021/09/18 04:18:50;;;;;;;;;21.50;19.50;;;;;19.81;100.00;101138.28;5018102;28;45599;-66
2021/09/18 04:21:16;;;;;;;;;28.25;25.75;;;;;19.80;100.00;101136.56;5017743;28;45335;-66
2021/09/18 04:23:42;;;;;;;;;31.00;28.25;;;;;19.80;100.00;101136.56;5017964;28;45301;-66
2021/09/18 04:26:07;;;;;;;;;31.75;30.25;;;;;19.79;100.00;101134.84;5018251;28;45567;-66
2021/09/18 04:28:33;;;;;;;;;35.75;32.50;;;;;19.80;100.00;101139.22;5017686;28;46465;-66
2021/09/18 04:30:58;;;;;;;;;36.75;31.25;;;;;19.81;100.00;101138.28;5017925;28;45407;-66
2021/09/18 04:33:23;;;;;;;;;41.00;33.25;;;;;19.71;100.00;101123.75;5017908;28;45293;-66
2021/09/18 04:39:13;;;;;;;;;31.75;30.00;;;;;19.78;100.00;101141.09;5017700;28;45905;-66
2021/09/18 04:41:38;;;;;;;;;28.75;28.25;;;;;19.80;100.00;101146.31;5018113;28;45348;-66
2021/09/18 04:44:04;;;;;;;;;27.00;24.75;;;;;19.74;100.00;101133.34;5018012;28;45672;-67
2021/09/18 04:46:29;;;;;;;;;24.25;23.50;;;;;19.74;100.00;101130.72;5018235;28;45440;-66
2021/09/18 04:48:54;;;;;;;;;20.75;20.25;;;;;19.78;100.00;101137.59;5017786;28;45439;-66
2021/09/18 04:51:20;;;;;;;;;18.00;18.00;;;;;19.61;100.00;101114.50;5017538;28;45458;-66
2021/09/18 04:53:45;;;;;;;;;17.75;16.75;;;;;19.65;100.00;101120.50;5017597;28;45406;-66
2021/09/18 04:56:11;;;;;;;;;18.50;16.50;;;;;19.68;100.00;101130.97;5017601;28;45489;-67
2021/09/18 04:58:36;;;;;;;;;16.25;14.00;;;;;19.64;100.00;101119.66;5017455;28;46313;-66
2021/09/18 05:01:02;;;;;;;;;21.25;17.75;;;;;19.70;100.00;101143.25;5017669;28;45384;-66
2021/09/18 05:03:27;;;;;;;;;18.25;15.50;;;;;19.66;100.00;101130.19;5017553;28;45409;-66
2021/09/18 05:09:14;;;;;;;;;16.00;15.00;;;;;19.60;100.00;101138.41;5017250;28;45462;-65
2021/09/18 05:11:40;;;;;;;;;16.00;15.25;;;;;19.61;100.00;101143.63;5017124;28;45289;-67
2021/09/18 05:14:05;;;;;;;;;18.50;16.00;;;;;19.60;100.00;101147.22;5017382;28;45404;-66
2021/09/18 05:16:31;;;;;;;;;18.50;17.75;;;;;19.55;100.00;101141.28;5017602;28;45402;-66
2021/09/18 05:18:57;;;;;;;;;17.75;14.00;;;;;19.55;100.00;101144.78;5017311;28;46372;-65
2021/09/18 05:24:44;;;;;;;;;17.50;16.00;;;;;19.49;100.00;101145.03;5015357;28;45635;-66
2021/09/18 05:27:09;;;;;;;;;20.50;16.75;;;;;19.52;100.00;101152.84;5017113;28;45567;-68
2021/09/18 05:29:35;;;;;;;;;21.75;18.50;;;;;19.50;100.00;101151.19;5017271;28;45514;-66
2021/09/18 05:32:00;;;;;;;;;19.00;16.00;;;;;19.52;100.00;101155.50;5017103;28;45517;-78
2021/09/18 05:34:25;;;;;;;;;19.50;18.25;;;;;19.52;100.00;101157.28;5016898;28;45622;-77
2021/09/18 05:36:51;;;;;;;;;19.00;17.50;;;;;19.48;100.00;101147.75;5017232;28;45359;-83
2021/09/18 05:39:16;;;;;;;;;14.75;13.75;;;;;19.53;100.00;101156.34;5016901;28;46383;-80
2021/09/18 05:41:42;;;;;;;;;17.25;16.50;;;;;19.51;100.00;101148.47;5017399;28;45394;-80
2021/09/18 05:44:07;;;;;;;;;13.25;13.25;;;;;19.46;100.00;101150.47;4999356;28;45407;-79
2021/09/18 05:46:33;;;;;;;;;19.00;17.00;;;;;19.53;100.00;101162.53;5017234;28;45482;-81
2021/09/18 05:48:58;;;;;;;;;16.25;14.50;;;;;19.54;100.00;101161.59;5022908;28;46423;-81
2021/09/18 05:54:45;;;;;;;;;18.75;16.00;;;;;19.51;100.00;101163.50;5023183;28;45553;-76
2021/09/18 05:57:10;;;;;;;;;17.00;17.00;;;;;19.49;100.00;101155.63;5023527;28;45432;-80
2021/09/18 05:59:36;;;;;;;;;14.75;12.75;;;;;19.57;100.00;101163.25;5023284;28;45381;-78
2021/09/18 06:02:01;;;;;;;;;15.25;13.00;;;;;19.56;100.00;101159.75;5023208;28;45326;-84
2021/09/18 06:04:27;;;;;;;;;13.00;12.75;;;;;19.57;100.00;101163.25;5023665;28;45286;-84
2021/09/18 06:06:52;;;;;;;;;13.00;12.50;;;;;19.58;100.00;101159.69;5023509;28;45295;-75
2021/09/18 06:09:17;;;;;;;;;13.25;12.75;;;;;19.63;100.00;101164.75;5022828;28;46552;-78
2021/09/18 06:11:43;;;;;;;;;15.75;13.50;;;;;19.57;100.00;101156.16;5023328;28;45535;-82
2021/09/18 06:14:08;;;;;;;;;15.00;13.00;;;;;19.64;100.00;101170.00;5024050;28;45336;-84
2021/09/18 06:16:34;;;;;;;;;15.00;14.00;;;;;19.62;100.00;101166.56;5006055;28;45553;-83
2021/09/18 06:18:59;;;;;;;;;15.25;12.50;;;;;19.67;100.00;101169.84;5023634;28;46340;-85
2021/09/18 06:24:46;;;;;;;;;13.00;12.25;;;;;19.76;100.00;101182.69;5023134;28;45555;-79
2021/09/18 06:27:11;;;;;;;;;17.00;11.50;;;;;19.80;100.00;101181.63;5023764;28;45333;-82
2021/09/18 06:29:37;;;;;;;;;16.75;14.75;;;;;19.83;100.00;101183.28;5022958;28;46220;-79
2021/09/18 06:32:07;;;;;;;;;10.25;9.75;;;;;19.81;100.00;101172.75;5022636;28;45360;-78
2021/09/18 06:34:37;;;;;;;;;12.50;12.25;;;;;19.88;100.00;101178.59;5023399;28;45324;-77
2021/09/18 06:37:03;;;;;;;;;11.25;10.00;;;;;19.78;100.00;101157.00;5023169;28;45493;-81
2021/09/18 06:39:28;;;;;;;;;16.00;12.50;;;;;19.81;100.00;101161.28;5023219;28;46425;-77
2021/09/18 06:41:54;;;;;;;;;13.00;12.25;;;;;19.75;100.00;101146.53;5022962;28;45466;-81
2021/09/18 06:44:19;;;;;;;;;15.25;13.00;;;;;19.92;100.00;101163.47;5023367;28;45333;-83
2021/09/18 06:46:44;;;;;;;;;12.00;12.00;;;;;19.96;100.00;101165.03;5024054;28;45428;-85
2021/09/18 06:49:10;;;;;;;;;13.25;12.25;;;;;20.01;100.00;101169.19;5005503;28;48069;-77
2021/09/18 06:54:57;;;;;;;;;13.75;13.25;;;;;20.14;100.00;101182.69;5026147;28;45445;-83
2021/09/18 06:57:23;;;;;;;;;13.00;12.00;;;;;20.09;100.00;101167.00;5024943;28;45385;-82
2021/09/18 06:59:49;;;;;;;;;14.00;13.25;;;;;20.18;100.00;101182.50;5023015;28;46765;-83
2021/09/18 07:02:14;;;;;;;;;14.00;14.00;;;;;20.18;100.00;101173.69;5024578;28;45374;-85
2021/09/18 07:04:40;;;;;;;;;17.00;15.00;;;;;20.23;100.00;101173.47;5020765;28;45389;-78
2021/09/18 07:07:05;;;;;;;;;18.00;17.00;;;;;20.26;100.00;101174.19;5020555;28;45509;-82
2021/09/18 07:09:31;;;;;;;;;14.25;12.00;;;;;20.35;100.00;101172.88;5019758;28;45327;-82
2021/09/18 07:11:56;;;;;;;;;14.00;13.75;;;;;20.39;100.00;101177.97;5019401;28;45391;-82
2021/09/18 07:14:22;;;;;;;;;12.75;12.75;;;;;20.42;100.00;101184.97;5019475;28;45270;-82
2021/09/18 07:16:47;;;;;;;;;13.00;13.00;;;;;20.43;100.00;101179.59;5019482;28;45375;-82
2021/09/18 07:19:13;;;;;;;;;11.25;10.00;;;;;20.42;100.00;101172.56;5019190;28;47215;-81
2021/09/18 07:25:27;;;;;;;;;15.75;15.00;;;;;20.46;100.00;101160.84;5019036;28;45467;-82
2021/09/18 07:27:53;;;;;;;;;17.50;16.25;;;;;20.67;100.00;101188.13;5019681;28;45465;-83
2021/09/18 07:30:19;;;;;;;;;16.00;14.00;;;;;20.70;100.00;101182.69;5019187;28;46933;-84
2021/09/18 07:32:44;;;;;;;;;20.75;19.50;;;;;20.74;100.00;101173.63;5019584;28;45365;-84
2021/09/18 07:35:10;;;;;;;;;14.75;14.75;;;;;20.89;100.00;101182.63;5019745;28;45291;-80
2021/09/18 07:37:36;;;;;;;;;16.75;14.50;;;;;20.96;100.00;101178.72;5019450;28;45414;-85
2021/09/18 07:40:07;;;;;;;;;15.00;13.75;;;;;20.96;100.00;101167.25;5019533;28;45394;-85
2021/09/18 07:42:32;;;;;;;;;15.00;13.25;;;;;21.14;100.00;101176.06;5019147;28;45277;-81
2021/09/18 07:44:57;;;;;;;;;16.00;16.00;;;;;21.20;100.00;101181.06;5020325;28;45358;-81
2021/09/18 07:47:23;;;;;;;;;14.00;14.00;;;;;21.32;100.00;101194.63;5020234;28;45488;-83
2021/09/18 07:49:48;;;;;;;;;14.00;13.50;;;;;21.41;100.00;101198.59;5020210;28;46939;-81
2021/09/18 07:55:35;;;;;;;;;17.50;17.00;;;;;21.80;100.00;101189.44;5019501;28;45376;-85
2021/09/18 07:58:03;;;;;;;;;13.75;13.00;;;;;22.12;100.00;101199.22;5019444;28;45481;-84
2021/09/18 08:00:29;;;;;;;;;15.25;14.00;;;;;22.49;100.00;101200.69;5019188;28;46252;-84
2021/09/18 08:02:56;;;;;;;;;15.50;13.75;;;;;22.84;100.00;101190.69;5019042;28;45381;-81
2021/09/18 08:05:24;;;;;;;;;12.75;12.50;;;;;23.25;100.00;101186.53;5018420;28;45219;-79
2021/09/18 08:07:49;;;;;;;;;15.00;12.75;;;;;23.67;100.00;101183.97;5018849;28;45348;-80
2021/09/18 08:10:16;;;;;;;;;15.00;13.50;;;;;24.18;100.00;101192.31;4999939;28;47355;-80
2021/09/18 08:12:46;;;;;;;;;13.00;13.00;;;;;24.59;100.00;101187.00;5018703;28;45325;-81
2021/09/18 08:15:12;;;;;;;;;13.50;12.75;;;;;25.13;100.00;101196.81;5018743;28;45319;-81
2021/09/18 08:17:39;;;;;;;;;16.75;15.50;;;;;25.50;100.00;101197.81;5019314;28;45275;-79
2021/09/18 08:20:05;;;;;;;;;15.25;14.25;;;;;25.76;100.00;101186.16;5018043;28;46394;-79
2021/09/18 08:22:31;;;;;;;;;13.00;12.00;;;;;26.13;100.00;101188.91;5018012;28;45585;-81
2021/09/18 08:24:57;;;;;;;;;13.50;13.25;;;;;26.47;100.00;101188.16;5018067;28;45381;-78
2021/09/18 08:27:22;;;;;;;;;12.75;11.75;;;;;26.87;100.00;101201.28;5018470;28;45349;-80
2021/09/18 08:29:47;;;;;;;;;10.00;10.00;;;;;27.12;100.00;101192.25;5018352;28;45372;-82
2021/09/18 08:32:13;;;;;;;;;15.00;14.00;;;;;27.49;100.00;101190.28;5018007;28;45406;-81
2021/09/18 08:34:38;;;;;;;;;13.00;11.00;;;;;27.84;100.00;101197.41;5018363;28;45346;-82
2021/09/18 08:40:27;;;;;;;;;11.50;11.00;;;;;28.44;100.00;101196.16;5017498;28;45719;-78
2021/09/18 08:42:54;;;;;;;;;13.00;12.00;;;;;28.67;100.00;101197.78;5017874;28;45326;-79
2021/09/18 08:45:20;;;;;;;;;14.00;11.75;;;;;28.77;100.00;101190.69;5017850;28;45380;-78
2021/09/18 08:47:47;;;;;;;;;9.75;9.25;;;;;28.93;100.00;101190.25;5018097;28;45215;-81
2021/09/18 08:50:16;;;;;;;;;8.00;8.00;;;;;29.04;100.00;101184.84;5017773;28;45374;-78
2021/09/18 08:52:42;;;;;;;;;10.25;10.00;;;;;29.14;100.00;101190.28;5017967;28;45428;-79
2021/09/18 08:55:08;;;;;;;;;10.00;9.00;;;;;29.29;100.00;101180.91;5018150;28;45400;-78
2021/09/18 08:57:33;;;;;;;;;8.50;7.75;;;;;29.44;99.32;101174.22;5000120;28;45489;-82
2021/09/18 08:59:58;;;;;;;;;11.75;11.00;;;;;29.80;98.93;101180.06;5017892;28;45637;-79
2021/09/18 09:02:27;;;;;;;;;8.00;8.00;;;;;30.15;97.38;101179.69;5017763;28;45290;-79
2021/09/18 09:11:47;;;;;;;;;10.00;8.75;;;;;31.88;87.84;101183.28;4936810;28;45798;-81
2021/09/18 09:14:12;;;;;;;;;9.75;9.00;;;;;32.36;86.11;101174.94;4937733;28;45348;-80
2021/09/18 09:16:57;;;;;;;;;8.50;7.50;;;;;33.06;83.02;101177.84;4938344;28;45372;-82
2021/09/18 09:19:23;;;;;;;;;9.75;8.75;;;;;33.70;80.27;101182.00;4938742;28;45404;-78
2021/09/18 09:21:54;;;;;;;;;5.00;5.00;;;;;34.20;77.33;101164.97;4937264;28;45464;-82
2021/09/18 09:24:24;;;;;;;;;8.75;8.00;;;;;34.52;74.48;101170.47;4937551;28;45410;-82
2021/09/18 09:27:12;;;;;;;;;8.75;8.00;;;;;34.82;73.07;101177.09;4937847;28;45348;-83
2021/09/18 09:29:43;;;;;;;;;6.75;6.75;;;;;34.93;72.32;101171.41;4938231;28;45405;-85
2021/09/18 09:32:33;;;;;;;;;7.50;7.00;;;;;34.85;71.67;101160.53;4937699;28;47297;-85
2021/09/18 09:35:07;;;;;;;;;9.00;8.00;;;;;34.51;71.60;101154.38;4937443;28;45342;-85
2021/09/18 09:37:32;;;;;;;;;8.50;8.25;;;;;34.19;72.00;101160.56;4948214;28;45346;-86
2021/09/18 09:40:02;;;;;;;;;7.00;5.75;;;;;33.89;72.56;101159.25;4946933;28;45417;-85
2021/09/18 09:42:31;;;;;;;;;6.00;6.00;;;;;33.68;72.72;101171.31;4947571;28;45567;-86
2021/09/18 09:45:12;;;;;;;;;6.75;6.75;;;;;33.43;72.93;101164.06;4982286;28;45410;-85
2021/09/18 09:47:38;;;;;;;;;9.75;7.75;;;;;33.43;74.22;101173.03;5003701;28;45364;-86
2021/09/18 09:50:04;;;;;;;;;11.50;9.00;;;;;33.47;74.26;101162.72;4998478;28;45409;-85
2021/09/18 09:52:32;;;;;;;;;8.75;8.00;;;;;33.89;73.78;101170.09;4997889;28;47398;-85
2021/09/18 09:55:08;;;;;;;;;8.00;8.00;;;;;34.54;72.20;101176.59;4997979;28;45352;-78
2021/09/18 09:57:33;;;;;;;;;10.50;9.75;;;;;35.25;69.92;101166.94;4998294;28;45316;-86
2021/09/18 10:00:01;;;;;;;;;10.75;10.75;;;;;36.12;67.69;101171.47;4998152;28;45413;-84
2021/09/18 10:02:27;;;;;;;;;10.75;10.00;;;;;36.82;65.99;101158.81;4998428;28;46370;-87
2021/09/18 10:04:53;;;;;;;;;9.50;8.50;;;;;37.52;65.52;101158.47;4997563;28;45295;-87
2021/09/18 10:07:19;;;;;;;;;9.00;9.00;;;;;38.17;63.94;101168.59;4997698;28;45319;-84
2021/09/18 10:09:47;;;;;;;;;10.00;9.25;;;;;38.66;62.57;101171.47;4998824;28;45307;-85
2021/09/18 10:12:13;;;;;;;;;9.50;8.75;;;;;39.23;61.66;101173.28;5000225;28;47105;-85
2021/09/18 10:14:45;;;;;;;;;9.00;8.00;;;;;39.92;58.61;101170.53;5000193;28;45267;-83
2021/09/18 10:17:10;;;;;;;;;10.25;9.50;;;;;40.53;58.14;101165.09;4999784;28;45267;-76
2021/09/18 10:24:55;;;;;;;;;9.75;9.00;;;;;42.12;52.26;101162.19;5007442;28;45641;-85
2021/09/18 10:27:24;;;;;;;;;8.50;8.25;;;;;42.42;50.80;101165.16;5017094;28;45207;-79
2021/09/18 10:29:50;;;;;;;;;9.25;9.25;;;;;42.66;49.62;101169.88;5017411;28;45284;-85
2021/09/18 10:32:17;;;;;;;;;8.75;8.50;;;;;43.01;49.62;101163.94;5016761;28;46178;-85
2021/09/18 10:34:43;;;;;;;;;8.50;8.00;;;;;43.27;47.99;101149.91;5020127;28;45419;-86
2021/09/18 10:37:40;;;;;;;;;8.00;8.00;;;;;43.98;48.09;101154.84;5022441;28;45344;-85
2021/09/18 10:40:13;;;;;;;;;9.00;7.75;;;;;44.42;46.66;101150.00;4940524;28;45349;-83
2021/09/18 10:42:49;;;;;;;;;7.75;7.25;;;;;45.00;45.24;101146.53;4923202;28;47479;-83
2021/09/18 10:45:17;;;;;;;;;8.50;7.75;;;;;45.46;43.16;101148.44;4939430;28;45486;-82
2021/09/18 10:47:48;;;;;;;;;7.00;6.50;;;;;45.41;41.55;101145.56;4939461;28;45464;-82
2021/09/18 10:50:26;;;;;;;;;8.00;8.00;;;;;45.58;41.25;101136.53;4939897;28;45422;-85
2021/09/18 10:53:09;;;;;;;;;8.25;7.75;;;;;46.08;41.05;101136.78;4939454;28;45536;-84
2021/09/18 10:55:58;;;;;;;;;7.00;6.75;;;;;46.45;39.72;101128.09;4939689;28;45421;-84
2021/09/18 10:58:25;;;;;;;;;7.00;7.00;;;;;46.60;37.35;101111.72;4939545;28;45566;-85
2021/09/18 11:00:59;;;;;;;;;6.25;5.75;;;;;46.41;38.36;101121.38;4939501;28;45496;-84
2021/09/18 11:03:42;;;;;;;;;7.00;7.00;;;;;46.13;37.55;101119.47;4939978;28;47080;-83
2021/09/18 11:09:49;;;;;;;;;6.00;6.00;;;;;46.35;38.31;101109.34;4939947;28;45438;-86
2021/09/18 11:12:15;;;;;;;;;6.50;6.25;;;;;46.77;38.39;101109.84;4939910;28;45357;-82
2021/09/18 11:14:40;;;;;;;;;7.25;6.25;;;;;46.89;36.17;101102.28;4945101;28;46301;-78
2021/09/18 11:17:31;;;;;;;;;6.75;6.00;;;;;46.78;36.73;101102.38;5020447;28;45210;-84
2021/09/18 11:20:14;;;;;;;;;8.50;8.50;;;;;46.43;35.51;101103.47;5020440;28;45386;-83
2021/09/18 11:26:21;;;;;;;;;6.00;6.00;;;;;46.07;35.64;101102.78;5018656;28;45773;-83
2021/09/18 11:28:47;;;;;;;;;6.00;6.00;;;;;45.49;34.58;101101.06;5019311;28;45304;-83
2021/09/18 11:31:14;;;;;;;;;6.50;5.75;;;;;44.22;35.82;101086.97;5019265;28;45231;-83
2021/09/18 11:33:39;;;;;;;;;6.25;6.25;;;;;43.48;36.80;101084.56;5019737;28;45386;-81
2021/09/18 11:36:05;;;;;;;;;6.75;6.50;;;;;42.95;38.17;101094.19;5019163;28;45627;-77
2021/09/18 11:38:32;;;;;;;;;7.25;6.75;;;;;42.11;37.78;101091.88;5019297;28;45510;-81
2021/09/18 11:41:10;;;;;;;;;6.25;5.25;;;;;40.89;39.54;101082.53;5019005;28;45346;-82
2021/09/18 11:43:37;;;;;;;;;7.25;6.25;;;;;40.04;41.27;101083.28;5019463;28;45156;-82
2021/09/18 11:46:04;;;;;;;;;7.00;7.00;;;;;39.49;42.42;101079.66;5018311;28;47241;-83
2021/09/18 11:48:31;;;;;;;;;5.75;5.75;;;;;39.32;44.40;101067.38;5019211;28;45251;-79
2021/09/18 11:50:57;;;;;;;;;6.00;6.00;;;;;39.57;44.93;101071.31;5019414;28;45456;-82
2021/09/18 11:56:45;;;;;;;;;7.00;6.25;;;;;38.25;45.05;101071.16;5018796;28;45824;-82
2021/09/18 11:59:11;;;;;;;;;6.50;6.50;;;;;37.54;46.20;101067.31;5018732;28;45602;-77
2021/09/18 12:01:39;;;;;;;;;6.75;5.75;;;;;37.01;48.71;101071.16;5001141;28;45500;-81
2021/09/18 12:04:04;;;;;;;;;5.25;4.50;;;;;36.59;50.00;101064.41;5019086;28;45345;-81
2021/09/18 12:06:31;;;;;;;;;12.00;10.00;;;;;36.17;50.03;101068.44;5019252;28;45369;-79
2021/09/18 12:08:57;;;;;;;;;11.25;10.75;;;;;35.88;51.89;101063.69;5018664;28;45478;-81
2021/09/18 12:11:22;;;;;;;;;5.25;4.75;;;;;35.83;53.01;101065.28;5019585;28;45222;-81
2021/09/18 12:13:51;;;;;;;;;6.00;6.00;;;;;36.58;54.28;101067.31;5020292;28;45218;-81
2021/09/18 12:16:22;;;;;;;;;6.25;5.25;;;;;36.90;52.70;101061.59;5019208;28;46208;-81
2021/09/18 12:18:49;;;;;;;;;10.00;8.75;;;;;37.10;52.76;101062.72;5019167;28;45599;-80
2021/09/18 12:21:20;;;;;;;;;6.50;6.00;;;;;37.95;51.11;101070.38;5018848;28;45362;-81
2021/09/18 12:23:48;;;;;;;;;9.75;9.75;;;;;37.57;50.51;101066.97;5019832;28;45534;-81
2021/09/18 12:26:16;;;;;;;;;7.75;6.75;;;;;36.85;51.26;101057.72;5018484;28;48131;-82
2021/09/18 12:28:42;;;;;;;;;6.00;6.00;;;;;36.16;52.40;101055.88;5019048;28;45403;-81